Time;durP1;ratioP1;P1;durP2;ratioP2;P2;SDS_P1;SDS_P2;PMS_P1;PMS_P2;Temp;Humidity;BMP_temperature;BMP_pressure;BME280_temperature;BME280_humidity;BME280_pressure;Samples;Min_cycle;Max_cycle;Signal;HPM_P1;HPM_P2
2022/04/01 00:00:10;;;;;;;3.33;2.60;;;;;;;0.48;90.28;94509.20;1702835;84;21019;-82
2022/04/01 00:02:38;;;;;;;3.10;2.70;;;;;;;0.48;90.46;94516.39;1702683;83;21362;-82
2022/04/01 00:05:06;;;;;;;2.83;2.62;;;;;;;0.48;90.27;94510.48;1702794;84;21020;-82
2022/04/01 00:07:35;;;;;;;3.72;2.87;;;;;;;0.48;90.33;94505.37;1702843;83;20999;-82
2022/04/01 00:10:00;;;;;;;3.20;2.90;;;;;;;0.45;90.19;94500.13;1705601;83;21493;-82
2022/04/01 00:12:26;;;;;;;2.90;2.70;;;;;;;0.47;90.23;94502.51;1728517;83;20968;-82
2022/04/01 00:14:53;;;;;;;3.80;3.45;;;;;;;0.47;90.24;94493.56;1731730;82;21007;-82
2022/04/01 00:17:18;;;;;;;3.72;3.42;;;;;;;0.48;90.16;94490.84;1731863;83;21043;-81
2022/04/01 00:19:44;;;;;;;4.17;3.20;;;;;;;0.45;90.05;94491.17;1731995;82;21050;-82
2022/04/01 00:22:11;;;;;;;4.15;3.25;;;;;;;0.44;90.42;94488.30;1711237;83;20991;-82
2022/04/01 00:24:36;;;;;;;4.10;3.15;;;;;;;0.45;90.11;94482.23;1702739;84;21070;-81
2022/04/01 00:27:02;;;;;;;3.50;3.20;;;;;;;0.50;90.07;94489.42;1702754;83;20991;-82
2022/04/01 00:29:29;;;;;;;3.67;3.30;;;;;;;0.51;90.01;94485.91;1702359;84;21047;-82
2022/04/01 00:32:01;;;;;;;2.45;2.25;;;;;;;0.54;90.19;94490.67;1724752;81;20940;-82
2022/04/01 00:34:33;;;;;;;3.98;3.58;;;;;;;0.50;90.04;94488.94;1732099;83;21323;-82
2022/04/01 00:37:01;;;;;;;4.55;3.45;;;;;;;0.50;90.04;94488.94;1731788;83;21047;-81
2022/04/01 00:39:29;;;;;;;4.10;3.55;;;;;;;0.46;90.02;94487.66;1731876;83;20994;-82
2022/04/01 00:41:56;;;;;;;3.27;2.87;;;;;;;0.46;90.25;94474.87;1731977;83;20988;-82
2022/04/01 00:44:27;;;;;;;3.22;2.77;;;;;;;0.47;89.99;94479.51;1728388;83;21051;-82
2022/04/01 00:46:57;;;;;;;2.45;2.22;;;;;;;0.49;90.28;94485.27;1702851;84;20999;-82
2022/04/01 00:49:24;;;;;;;2.70;2.50;;;;;;;0.51;90.03;94482.07;1702653;83;20983;-82
2022/04/01 00:51:51;;;;;;;3.72;3.40;;;;;;;0.52;89.95;94489.56;1721515;83;21373;-82
2022/04/01 00:54:17;;;;;;;2.15;1.85;;;;;;;0.50;89.99;94490.70;1720380;82;21006;-82
2022/04/01 00:56:44;;;;;;;2.83;2.58;;;;;;;0.49;89.94;94487.34;1708755;84;21432;-82
2022/04/01 00:59:09;;;;;;;2.17;2.08;;;;;;;0.47;89.81;94479.51;1708800;84;20991;-81
2022/04/01 01:01:36;;;;;;;2.50;2.00;;;;;;;0.47;89.93;94477.75;1708662;82;20971;-82
2022/04/01 01:04:05;;;;;;;2.65;1.98;;;;;;;0.49;89.88;94475.84;1708681;84;21402;-82
2022/04/01 01:06:31;;;;;;;3.12;2.60;;;;;;;0.48;89.77;94474.23;1708341;84;21002;-81
2022/04/01 01:08:58;;;;;;;1.77;1.67;;;;;;;0.46;89.79;94468.49;1708824;84;21063;-82
2022/04/01 01:11:25;;;;;;;2.30;2.10;;;;;;;0.47;90.15;94461.14;1705550;82;21042;-81
2022/04/01 01:13:53;;;;;;;2.35;2.15;;;;;;;0.45;89.93;94467.38;1686796;84;21034;-81
2022/04/01 01:16:19;;;;;;;3.00;2.60;;;;;;;0.45;90.22;94463.06;1687406;84;21362;-82
2022/04/01 01:18:59;;;;;;;2.65;2.45;;;;;;;0.44;90.12;94466.59;1680474;85;21046;-81
2022/04/01 01:21:26;;;;;;;2.77;2.58;;;;;;;0.46;89.97;94471.53;1654378;85;21002;-82
2022/04/01 01:23:51;;;;;;;2.67;2.47;;;;;;;0.51;89.99;94470.57;1680231;85;21094;-82
2022/04/01 01:26:18;;;;;;;3.17;2.70;;;;;;;0.54;89.98;94468.95;1695849;84;20942;-82
2022/04/01 01:28:44;;;;;;;3.83;2.90;;;;;;;0.55;89.88;94465.44;1698301;84;20990;-81
2022/04/01 01:31:12;;;;;;;3.22;2.62;;;;;;;0.53;89.73;94459.70;1687005;82;21090;-81
2022/04/01 01:33:39;;;;;;;2.87;2.58;;;;;;;0.53;89.78;94463.05;1680276;85;21087;-81
2022/04/01 01:36:05;;;;;;;2.22;2.05;;;;;;;0.45;89.73;94444.39;1680238;84;21058;-81
2022/04/01 01:38:32;;;;;;;2.47;2.27;;;;;;;0.47;89.85;94459.86;1680420;84;21449;-81
2022/04/01 01:40:58;;;;;;;2.62;2.42;;;;;;;0.44;89.92;94453.81;1680374;84;21094;-81
2022/04/01 01:43:24;;;;;;;2.75;2.55;;;;;;;0.47;90.07;94462.90;1702785;84;21010;-81
2022/04/01 01:45:50;;;;;;;2.70;2.40;;;;;;;0.44;89.88;94455.09;1681200;84;21010;-81
2022/04/01 01:48:18;;;;;;;3.10;2.70;;;;;;;0.48;90.00;94451.72;1680528;85;21071;-81
2022/04/01 01:56:12;;;;;;;3.50;3.20;;;;;;;0.54;90.07;94443.40;1702678;83;20979;-81
2022/04/01 01:58:38;;;;;;;3.40;3.12;;;;;;;0.48;89.81;94434.63;1699237;83;21003;-81
2022/04/01 02:01:05;;;;;;;3.58;3.08;;;;;;;0.46;89.98;94430.64;1718457;82;21043;-81
2022/04/01 02:03:30;;;;;;;3.30;3.00;;;;;;;0.48;90.16;94426.95;1734952;83;21019;-81
2022/04/01 02:05:56;;;;;;;3.00;2.80;;;;;;;0.50;90.12;94425.54;1721717;83;20963;-82
2022/04/01 02:08:22;;;;;;;3.10;2.80;;;;;;;0.52;90.01;94428.72;1721887;83;21374;-81
2022/04/01 02:10:48;;;;;;;2.60;2.40;;;;;;;0.53;90.05;94425.20;1748326;82;20956;-81
2022/04/01 02:13:14;;;;;;;2.75;2.52;;;;;;;0.53;89.74;94425.99;1734766;83;21010;-81
2022/04/01 02:15:41;;;;;;;3.08;2.87;;;;;;;0.56;89.67;94427.41;1747965;82;21438;-81
2022/04/01 02:18:07;;;;;;;2.77;2.45;;;;;;;0.53;89.76;94424.72;1735047;83;21023;-81
2022/04/01 02:20:33;;;;;;;2.70;2.50;;;;;;;0.47;89.54;94427.13;1731422;82;20920;-81
2022/04/01 02:22:58;;;;;;;3.83;3.22;;;;;;;0.44;89.70;94428.27;1708529;83;21031;-81
2022/04/01 02:25:27;;;;;;;2.98;2.50;;;;;;;0.43;89.83;94423.32;1717894;82;21067;-81
2022/04/01 02:27:53;;;;;;;2.67;2.50;;;;;;;0.39;89.92;94420.80;1740724;82;20956;-81
2022/04/01 02:30:19;;;;;;;3.50;2.80;;;;;;;0.34;89.94;94431.52;1718215;83;20956;-81
2022/04/01 02:32:45;;;;;;;2.60;2.40;;;;;;;0.32;90.07;94420.64;1714140;83;20987;-81
2022/04/01 02:35:10;;;;;;;2.50;2.30;;;;;;;0.35;90.07;94422.09;1692947;84;21042;-81
2022/04/01 02:37:36;;;;;;;3.08;2.85;;;;;;;0.35;89.89;94421.61;1699796;83;20968;-81
2022/04/01 02:40:04;;;;;;;3.12;2.83;;;;;;;0.37;89.85;94428.63;1707676;83;21290;-81
2022/04/01 02:42:29;;;;;;;2.72;2.52;;;;;;;0.41;90.02;94422.22;1748080;82;21000;-82
2022/04/01 02:44:56;;;;;;;3.25;2.95;;;;;;;0.43;90.04;94418.21;1734879;83;21406;-81
2022/04/01 02:47:21;;;;;;;2.92;2.72;;;;;;;0.45;90.15;94418.84;1748005;82;20968;-81
2022/04/01 02:49:47;;;;;;;2.80;2.60;;;;;;;0.46;90.06;94418.67;1734759;83;21030;-81
2022/04/01 02:52:13;;;;;;;2.27;2.12;;;;;;;0.44;89.80;94407.82;1747940;82;21374;-81
2022/04/01 02:54:39;;;;;;;2.70;2.50;;;;;;;0.44;90.01;94403.98;1723398;83;21053;-81
2022/04/01 02:57:05;;;;;;;3.20;2.90;;;;;;;0.43;89.69;94404.95;1708688;84;20991;-81
2022/04/01 02:59:31;;;;;;;3.15;2.85;;;;;;;0.45;89.68;94399.19;1708663;83;20970;-81
2022/04/01 03:01:56;;;;;;;2.52;2.37;;;;;;;0.46;89.68;94400.78;1708578;82;21314;-81
2022/04/01 03:04:22;;;;;;;2.95;2.67;;;;;;;0.43;89.37;94396.02;1708817;84;21039;-81
2022/04/01 03:06:48;;;;;;;2.80;2.60;;;;;;;0.41;89.54;94397.94;1708531;84;20993;-81
2022/04/01 03:09:14;;;;;;;3.95;2.65;;;;;;;0.39;89.49;94398.59;1708772;84;21017;-81
2022/04/01 03:11:42;;;;;;;2.70;2.47;;;;;;;0.37;89.60;94395.90;1692033;84;21405;-81
2022/04/01 03:14:10;;;;;;;2.98;2.42;;;;;;;0.40;89.56;94403.22;1680359;85;20962;-81
2022/04/01 03:16:39;;;;;;;3.10;2.80;;;;;;;0.42;89.68;94401.29;1680203;84;21053;-81
2022/04/01 03:19:12;;;;;;;3.65;3.35;;;;;;;0.45;89.46;94408.61;1702207;84;20928;-81
2022/04/01 03:21:36;;;;;;;3.33;2.85;;;;;;;0.44;89.46;94407.03;1707435;84;20994;-81
2022/04/01 03:24:02;;;;;;;3.33;3.00;;;;;;;0.42;89.81;94405.13;1708273;84;20992;-81
2022/04/01 03:26:28;;;;;;;4.00;3.60;;;;;;;0.43;89.79;94419.48;1706925;84;20927;-81
2022/04/01 03:28:59;;;;;;;3.90;3.50;;;;;;;0.41;89.71;94426.53;1680375;85;21065;-81
2022/04/01 03:31:25;;;;;;;3.50;3.20;;;;;;;0.41;89.74;94419.66;1690400;82;21050;-81
2022/04/01 03:33:51;;;;;;;4.58;4.17;;;;;;;0.41;90.09;94426.05;1708652;84;21025;-81
2022/04/01 03:36:18;;;;;;;4.58;3.92;;;;;;;0.42;89.85;94427.64;1708695;84;21094;-81
2022/04/01 03:38:44;;;;;;;3.80;3.50;;;;;;;0.40;89.79;94420.63;1688873;84;21425;-81
2022/04/01 03:41:10;;;;;;;4.60;4.20;;;;;;;0.41;89.70;94418.38;1689107;84;21031;-81
2022/04/01 03:43:36;;;;;;;5.12;4.60;;;;;;;0.41;89.90;94414.55;1708525;84;21033;-81
2022/04/01 03:46:09;;;;;;;4.50;4.10;;;;;;;0.39;90.01;94408.81;1698470;84;21310;-81
2022/04/01 03:48:39;;;;;;;;;;;;;;;0.34;90.10;94417.47;1682621;84;20935;-81
2022/04/01 03:51:05;;;;;;;6.10;5.50;;;;;;;0.27;90.09;94406.31;1680267;85;20095;-82
2022/04/01 03:53:32;;;;;;;7.40;6.75;;;;;;;0.22;90.29;94424.70;1680269;85;21337;-81
2022/04/01 03:56:01;;;;;;;7.28;6.65;;;;;;;0.22;90.46;94422.63;1679986;84;21049;-81
2022/04/01 03:58:30;;;;;;;6.00;5.50;;;;;;;0.24;90.42;94424.53;1680316;85;21075;-81
2022/04/01 04:01:04;;;;;;;6.20;5.70;;;;;;;0.25;90.43;94428.67;1688225;84;21039;-81
2022/04/01 04:03:31;;;;;;;6.83;6.15;;;;;;;0.30;90.54;94428.48;1680201;84;20966;-81
2022/04/01 04:05:58;;;;;;;7.00;6.40;;;;;;;0.30;90.63;94432.31;1695561;84;20990;-83
2022/04/01 04:08:24;;;;;;;7.45;6.83;;;;;;;0.31;90.68;94436.94;1708751;84;20962;-80
2022/04/01 04:10:51;;;;;;;6.87;6.28;;;;;;;0.30;90.77;94436.14;1695224;84;21039;-81
2022/04/01 04:13:17;;;;;;;5.55;5.05;;;;;;;0.31;90.80;94435.66;1680338;84;21037;-81
2022/04/01 04:16:18;;;;;;;5.75;5.25;;;;;;;0.30;90.75;94433.59;1680215;84;21102;-81
2022/04/01 04:19:09;;;;;;;6.80;6.20;;;;;;;0.30;90.58;94434.87;1679180;85;21149;-81
2022/04/01 04:21:50;;;;;;;6.08;5.47;;;;;;;0.31;90.67;94434.38;1680381;85;21091;-81
2022/04/01 04:24:22;;;;;;;6.65;6.05;;;;;;;0.33;90.86;94436.31;1680567;85;21026;-81
2022/04/01 04:26:50;;;;;;;9.65;8.35;;;;;;;0.36;90.80;94433.42;1701355;84;21030;-81
2022/04/01 04:29:18;;;;;;;12.88;11.48;;;;;;;0.38;90.60;94434.05;1708732;84;21353;-81
2022/04/01 04:32:03;;;;;;;9.00;6.90;;;;;;;0.39;90.78;94430.53;1704637;84;21022;-81
2022/04/01 04:34:38;;;;;;;10.50;6.92;;;;;;;0.37;90.81;94431.66;1708789;84;20998;-81
2022/04/01 04:37:09;;;;;;;7.40;5.25;;;;;;;0.35;90.79;94433.11;1708685;84;21046;-81
2022/04/01 04:39:34;;;;;;;5.00;4.60;;;;;;;0.37;90.76;94429.91;1686572;84;21022;-81
2022/04/01 04:42:04;;;;;;;4.97;4.58;;;;;;;0.39;90.79;94427.98;1702234;84;20978;-81
2022/04/01 04:44:30;;;;;;;5.37;4.75;;;;;;;0.45;90.69;94434.16;1708836;84;21070;-81
2022/04/01 04:46:58;;;;;;;4.75;4.25;;;;;;;0.48;90.50;94424.40;1708479;84;20939;-81
2022/04/01 04:49:25;;;;;;;4.80;4.40;;;;;;;0.47;90.33;94436.06;1708597;84;21010;-81
2022/04/01 04:51:52;;;;;;;4.10;3.80;;;;;;;0.46;90.45;94436.55;1708706;84;21026;-81
2022/04/01 04:54:18;;;;;;;5.10;4.40;;;;;;;0.45;90.47;94434.96;1708877;84;20951;-81
2022/04/01 04:56:44;;;;;;;4.30;3.90;;;;;;;0.46;90.33;94440.87;1708656;84;21448;-81
2022/04/01 04:59:10;;;;;;;4.72;4.28;;;;;;;0.48;90.40;94429.52;1708839;84;20999;-81
2022/04/01 05:01:39;;;;;;;5.15;4.65;;;;;;;0.47;90.30;94429.20;1708572;82;20987;-81
2022/04/01 05:04:25;;;;;;;3.42;3.20;;;;;;;0.45;90.24;94445.19;1707714;84;20994;-81
2022/04/01 05:07:08;;;;;;;4.92;4.42;;;;;;;0.43;90.38;94451.42;1708046;84;21380;-81
2022/04/01 05:09:52;;;;;;;4.83;4.33;;;;;;;0.41;90.61;94446.48;1682276;84;21097;-81
2022/04/01 05:12:37;;;;;;;4.25;3.83;;;;;;;0.43;90.68;94447.59;1696912;84;21018;-81
2022/04/01 05:15:09;;;;;;;4.40;4.00;;;;;;;0.44;90.38;94452.53;1686166;84;21057;-83
2022/04/01 05:18:01;;;;;;;3.02;2.77;;;;;;;0.44;90.30;94453.81;1675775;84;21276;-81
2022/04/01 05:20:28;;;;;;;3.72;3.42;;;;;;;0.47;90.45;94451.40;1696179;84;20951;-81
2022/04/01 05:23:17;;;;;;;4.55;4.15;;;;;;;0.45;90.57;94454.13;1708196;84;21002;-81
2022/04/01 05:25:55;;;;;;;3.90;3.60;;;;;;;0.44;90.50;94447.42;1692278;84;21079;-81
2022/04/01 05:28:31;;;;;;;3.58;3.27;;;;;;;0.50;90.54;94457.48;1696804;84;21042;-81
2022/04/01 05:31:13;;;;;;;3.60;3.30;;;;;;;0.54;90.26;94462.56;1701064;82;21010;-81
2022/04/01 05:34:20;;;;;;;3.62;3.33;;;;;;;0.58;90.03;94455.66;1704522;84;21054;-81
2022/04/01 05:36:49;;;;;;;3.58;3.27;;;;;;;0.62;89.88;94467.63;1691241;84;20963;-81
2022/04/01 05:39:15;;;;;;;3.75;3.45;;;;;;;0.63;89.72;94458.20;1654399;84;21061;-81
2022/04/01 05:41:41;;;;;;;3.75;3.45;;;;;;;0.71;89.90;94463.28;1694094;84;21057;-81
2022/04/01 05:44:09;;;;;;;3.95;3.67;;;;;;;0.77;89.78;94458.77;1680653;84;21083;-80
2022/04/01 05:46:35;;;;;;;3.75;3.35;;;;;;;0.84;89.82;94463.53;1680574;84;20931;-81
2022/04/01 05:49:01;;;;;;;5.67;4.50;;;;;;;0.99;89.76;94459.28;1701864;84;21011;-81
2022/04/01 05:51:29;;;;;;;7.33;5.80;;;;;;;1.04;88.74;94461.33;1654918;84;20940;-81
2022/04/01 05:53:55;;;;;;;7.22;5.67;;;;;;;1.14;88.93;94465.75;1708796;84;20951;-80
2022/04/01 05:56:21;;;;;;;7.22;5.03;;;;;;;1.22;88.63;94468.72;1699395;83;21078;-81
2022/04/01 05:58:47;;;;;;;8.40;5.72;;;;;;;1.34;88.57;94470.70;1680571;84;21067;-81
2022/04/01 06:01:27;;;;;;;6.05;5.22;;;;;;;1.42;88.32;94467.28;1663534;83;21040;-81
2022/04/01 06:04:21;;;;;;;7.92;6.12;;;;;;;1.44;88.08;94469.97;1673321;84;21548;-80
2022/04/01 06:06:48;;;;;;;7.70;6.85;;;;;;;1.47;88.00;94471.42;1690376;84;20947;-81
2022/04/01 06:09:22;;;;;;;7.20;5.83;;;;;;;1.49;87.88;94468.99;1708758;84;20974;-81
2022/04/01 06:12:05;;;;;;;7.85;6.67;;;;;;;1.55;87.53;94473.09;1708734;84;21003;-80
2022/04/01 06:14:55;;;;;;;7.05;6.33;;;;;;;1.57;87.18;94466.83;1709004;84;21063;-81
2022/04/01 06:17:49;;;;;;;6.33;5.62;;;;;;;1.52;86.78;94467.84;1676940;83;21117;-81
2022/04/01 06:20:16;;;;;;;8.40;6.80;;;;;;;1.44;86.92;94476.85;1708882;84;20959;-81
2022/04/01 06:22:58;;;;;;;6.83;5.95;;;;;;;1.35;86.80;94477.42;1708870;84;20986;-81
2022/04/01 06:25:27;;;;;;;;;;;;;;;1.31;87.08;94477.94;1706378;84;21035;-80
2022/04/01 06:28:01;;;;;;;8.35;6.62;;;;;;;1.30;87.07;94476.31;1708526;83;20385;-80
2022/04/01 06:30:29;;;;;;;7.60;6.85;;;;;;;1.30;87.04;94476.31;1686153;82;21002;-81
2022/04/01 06:33:21;;;;;;;5.08;4.55;;;;;;;1.36;87.45;94480.28;1682897;84;21456;-80
2022/04/01 06:35:59;;;;;;;6.90;5.75;;;;;;;1.37;86.63;94478.52;1708978;84;21023;-80
2022/04/01 06:38:39;;;;;;;6.67;6.03;;;;;;;1.33;86.88;94478.08;1694478;84;20970;-81
2022/04/01 06:41:16;;;;;;;6.87;5.70;;;;;;;1.34;87.17;94475.83;1698604;84;20955;-81
2022/04/01 06:43:43;;;;;;;6.62;5.92;;;;;;;1.40;87.14;94467.45;1708328;84;20970;-81
2022/04/01 06:46:10;;;;;;;7.10;6.42;;;;;;;1.39;86.84;94482.98;1683973;84;20998;-81
2022/04/01 06:48:36;;;;;;;7.58;6.78;;;;;;;1.34;86.68;94471.98;1685607;84;21066;-80
2022/04/01 06:51:02;;;;;;;6.95;6.25;;;;;;;1.32;86.44;94475.69;1708755;84;20963;-80
2022/04/01 06:53:27;;;;;;;9.78;8.13;;;;;;;1.18;86.39;94474.18;1700776;84;20962;-80
2022/04/01 06:55:54;;;;;;;7.47;6.78;;;;;;;1.18;86.84;94480.58;1704995;83;21118;-80
2022/04/01 06:58:21;;;;;;;6.83;6.15;;;;;;;1.22;86.86;94481.02;1689495;84;21394;-80
2022/04/01 07:00:47;;;;;;;7.40;6.58;;;;;;;1.14;86.52;94486.21;1695505;84;20916;-80
2022/04/01 07:03:13;;;;;;;7.90;7.08;;;;;;;1.10;86.92;94484.94;1690516;84;20971;-81
2022/04/01 07:05:40;;;;;;;8.98;8.05;;;;;;;1.09;86.97;94487.18;1689938;84;21413;-81
2022/04/01 07:08:06;;;;;;;11.97;10.50;;;;;;;1.09;87.28;94486.70;1659761;84;20951;-79
2022/04/01 07:10:33;;;;;;;10.85;9.85;;;;;;;1.13;87.58;94491.78;1683608;84;20967;-80
2022/04/01 07:12:58;;;;;;;10.72;9.73;;;;;;;1.13;87.36;94487.94;1685602;84;20963;-79
2022/04/01 07:15:24;;;;;;;10.18;9.18;;;;;;;1.12;87.35;94489.39;1684416;84;20927;-79
2022/04/01 07:17:51;;;;;;;10.48;8.93;;;;;;;1.12;87.27;94490.67;1686180;84;20971;-79
2022/04/01 07:20:17;;;;;;;8.68;7.90;;;;;;;1.13;87.12;94484.59;1680096;84;21346;-82
2022/04/01 07:22:45;;;;;;;8.53;7.70;;;;;;;1.06;87.03;94487.04;1682131;84;21022;-79
2022/04/01 07:25:12;;;;;;;12.95;10.98;;;;;;;1.02;86.81;94492.19;1686938;84;20951;-79
2022/04/01 07:27:38;;;;;;;11.40;10.10;;;;;;;0.92;86.86;94485.69;1704216;84;21018;-79
2022/04/01 07:30:08;;;;;;;11.05;9.65;;;;;;;0.95;87.43;94490.46;1704064;84;20999;-79
2022/04/01 07:32:35;;;;;;;9.33;8.43;;;;;;;0.96;87.35;94485.17;1692021;84;21066;-80
2022/04/01 07:35:03;;;;;;;7.22;6.15;;;;;;;0.95;87.21;94491.73;1703552;84;21106;-79
2022/04/01 07:37:28;;;;;;;12.60;10.00;;;;;;;0.90;87.07;94494.33;1703109;84;21410;-79
2022/04/01 07:39:57;;;;;;;11.60;10.50;;;;;;;0.86;87.33;94489.24;1685496;84;21062;-79
2022/04/01 07:42:24;;;;;;;10.88;9.60;;;;;;;0.85;87.34;94490.20;1673137;84;21428;-79
2022/04/01 07:44:50;;;;;;;10.00;9.00;;;;;;;0.87;87.46;94498.50;1685011;84;20979;-79
2022/04/01 07:47:16;;;;;;;9.25;8.35;;;;;;;0.90;87.67;94484.58;1703410;84;21002;-79
2022/04/01 07:49:42;;;;;;;10.00;9.00;;;;;;;0.93;87.46;94490.63;1703452;84;20916;-79
2022/04/01 07:52:09;;;;;;;8.18;7.37;;;;;;;0.95;87.56;94491.25;1703369;84;20947;-79
2022/04/01 07:54:36;;;;;;;8.65;7.83;;;;;;;0.99;87.51;94486.14;1702358;84;21074;-79
2022/04/01 07:57:05;;;;;;;9.08;8.28;;;;;;;0.97;87.27;94493.16;1679880;84;20978;-79
2022/04/01 07:59:30;;;;;;;7.08;6.42;;;;;;;0.97;87.21;94490.60;1680208;84;20935;-79
2022/04/01 08:01:57;;;;;;;8.73;7.87;;;;;;;0.98;87.18;94495.27;1700214;84;20995;-79
2022/04/01 08:04:25;;;;;;;8.60;7.80;;;;;;;0.96;87.25;94490.28;1689663;84;20970;-79
2022/04/01 08:06:52;;;;;;;8.08;7.28;;;;;;;0.96;87.19;94497.16;1695393;84;21099;-79
2022/04/01 08:09:18;;;;;;;7.70;6.97;;;;;;;0.99;87.19;94487.42;1680478;85;21054;-79
2022/04/01 08:11:43;;;;;;;7.67;7.00;;;;;;;1.05;87.10;94496.95;1685732;84;21091;-82
2022/04/01 08:14:09;;;;;;;7.08;6.47;;;;;;;1.11;86.94;94501.39;1686082;84;21050;-79
2022/04/01 08:16:35;;;;;;;5.40;4.95;;;;;;;1.20;86.79;94495.27;1684650;84;21381;-79
2022/04/01 08:19:02;;;;;;;6.30;5.70;;;;;;;1.20;85.68;94492.70;1680175;84;21109;-79
2022/04/01 08:21:28;;;;;;;5.83;5.30;;;;;;;1.27;86.10;94506.88;1680294;84;21048;-84
2022/04/01 08:23:54;;;;;;;6.60;6.00;;;;;;;1.32;85.86;94500.00;1680255;84;21453;-79
2022/04/01 08:26:20;;;;;;;6.87;6.28;;;;;;;1.36;85.52;94501.23;1687609;84;21113;-79
2022/04/01 08:28:46;;;;;;;5.92;5.40;;;;;;;1.41;85.88;94501.52;1680427;84;21046;-79
2022/04/01 08:31:11;;;;;;;4.87;4.22;;;;;;;1.43;85.10;94502.14;1691322;82;21022;-79
2022/04/01 08:33:37;;;;;;;5.58;5.08;;;;;;;1.52;85.10;94502.41;1686955;84;21377;-79
2022/04/01 08:36:03;;;;;;;5.60;5.03;;;;;;;1.50;84.95;94496.66;1681575;84;21002;-79
2022/04/01 08:38:29;;;;;;;4.25;3.95;;;;;;;1.63;85.22;94503.77;1685194;84;20986;-79
2022/04/01 08:40:55;;;;;;;5.00;4.60;;;;;;;1.79;84.95;94504.91;1680448;84;20947;-79
2022/04/01 08:43:37;;;;;;;5.22;4.83;;;;;;;1.83;84.15;94507.91;1684119;84;21401;-79
2022/04/01 08:46:06;;;;;;;5.78;5.28;;;;;;;1.85;83.44;94500.36;1694927;84;21433;-80
2022/04/01 08:48:32;;;;;;;5.55;5.05;;;;;;;1.91;84.06;94515.02;1708667;84;21384;-79
2022/04/01 08:50:58;;;;;;;7.90;5.70;;;;;;;2.11;84.07;94511.47;1708602;84;21086;-83
2022/04/01 08:53:24;;;;;;;5.80;5.30;;;;;;;2.30;82.89;94517.39;1705712;84;21270;-81
2022/04/01 08:55:55;;;;;;;5.90;5.28;;;;;;;2.51;83.14;94514.59;1708652;83;21364;-80
2022/04/01 08:58:23;;;;;;;4.70;3.70;;;;;;;2.81;83.27;94517.45;1708899;84;21070;-82
2022/04/01 09:00:51;;;;;;;6.22;5.70;;;;;;;2.87;81.67;94518.00;1708605;82;21097;-79
2022/04/01 09:03:18;;;;;;;6.65;6.05;;;;;;;2.85;82.11;94523.00;1702094;84;20963;-80
2022/04/01 09:05:53;;;;;;;6.55;5.95;;;;;;;2.92;81.78;94529.79;1689349;84;21038;-85
2022/04/01 09:08:35;;;;;;;7.33;6.62;;;;;;;2.87;81.04;94531.31;1708536;84;21408;-85
2022/04/01 09:11:16;;;;;;;5.97;5.30;;;;;;;2.97;81.30;94534.41;1692906;84;20971;-79
2022/04/01 09:13:47;;;;;;;6.65;6.00;;;;;;;3.04;81.01;94539.11;1708732;84;21022;-82
2022/04/01 09:16:31;;;;;;;6.42;5.85;;;;;;;3.04;80.33;94524.20;1702231;82;21106;-84
2022/04/01 09:18:58;;;;;;;10.05;9.15;;;;;;;2.88;80.56;94531.13;1680094;85;21401;-79
2022/04/01 09:21:34;;;;;;;10.45;9.53;;;;;;;2.79;80.77;94535.28;1680517;85;21066;-79
2022/04/01 09:24:01;;;;;;;11.20;10.23;;;;;;;2.68;81.01;94540.36;1680346;85;21460;-79
2022/04/01 09:26:35;;;;;;;12.53;11.33;;;;;;;2.54;81.18;94543.23;1687930;84;21428;-80
2022/04/01 09:29:02;;;;;;;13.68;12.25;;;;;;;2.36;81.56;94548.70;1680478;84;20958;-79
2022/04/01 09:31:33;;;;;;;14.43;13.03;;;;;;;2.36;82.12;94542.30;1692036;82;21294;-80
2022/04/01 09:34:00;;;;;;;15.48;13.95;;;;;;;2.20;81.44;94541.67;1695788;84;21007;-80
2022/04/01 09:36:38;;;;;;;20.12;17.32;;;;;;;2.05;82.22;94537.31;1703743;82;21358;-80
2022/04/01 09:39:19;;;;;;;19.07;16.30;;;;;;;2.10;82.44;94540.14;1694134;84;20959;-80
2022/04/01 09:41:50;;;;;;;20.05;16.48;;;;;;;2.17;82.49;94543.30;1707013;84;21051;-80
2022/04/01 09:44:21;;;;;;;16.93;13.88;;;;;;;2.22;82.45;94544.36;1689826;84;21046;-80
2022/04/01 09:46:52;;;;;;;15.90;13.65;;;;;;;2.25;82.29;94540.16;1670611;84;21045;-82
2022/04/01 09:49:36;;;;;;;15.45;13.62;;;;;;;2.23;82.38;94546.44;1687696;84;21050;-80
2022/04/01 09:52:22;;;;;;;15.98;14.28;;;;;;;2.26;82.63;94543.52;1680370;84;21476;-80
2022/04/01 09:54:50;;;;;;;16.67;14.58;;;;;;;2.31;82.76;94546.38;1679556;84;20990;-80
2022/04/01 09:57:18;;;;;;;14.50;13.08;;;;;;;2.32;82.26;94554.38;1675989;84;21043;-79
2022/04/01 09:59:44;;;;;;;16.55;14.60;;;;;;;2.25;82.22;94554.25;1675146;84;20999;-79
2022/04/01 10:02:10;;;;;;;13.28;11.88;;;;;;;2.20;82.33;94547.59;1675036;84;20958;-79
2022/04/01 10:04:37;;;;;;;13.18;11.88;;;;;;;2.28;82.56;94548.80;1675329;84;21034;-79
2022/04/01 10:07:04;;;;;;;14.30;12.90;;;;;;;2.29;82.13;94546.55;1675208;84;20973;-79
2022/04/01 10:09:29;;;;;;;11.95;10.75;;;;;;;2.25;82.19;94554.74;1675309;84;21069;-81
2022/04/01 10:11:55;;;;;;;9.80;8.28;;;;;;;2.10;81.66;94555.52;1675173;84;20981;-79
2022/04/01 10:14:28;;;;;;;11.38;9.93;;;;;;;1.96;81.69;94552.95;1676630;83;20985;-79
2022/04/01 10:16:55;;;;;;;14.03;12.63;;;;;;;1.91;82.34;94556.00;1681782;84;20963;-79
2022/04/01 10:19:32;;;;;;;13.45;11.83;;;;;;;1.86;82.22;94554.45;1674201;84;21050;-82
2022/04/01 10:21:58;;;;;;;12.05;10.95;;;;;;;1.88;82.58;94562.76;1685959;84;20928;-80
2022/04/01 10:25:01;;;;;;;13.28;11.85;;;;;;;1.85;82.56;94559.27;1700099;84;21066;-80
2022/04/01 10:27:36;;;;;;;11.48;10.30;;;;;;;1.89;82.96;94555.88;1681214;84;21020;-79
2022/04/01 10:30:02;;;;;;;14.03;11.60;;;;;;;1.87;82.53;94560.38;1687300;84;20970;-80
2022/04/01 10:32:31;;;;;;;10.03;8.75;;;;;;;1.86;82.65;94565.19;1690615;84;21018;-84
2022/04/01 10:35:01;;;;;;;10.68;9.75;;;;;;;1.75;82.10;94566.37;1668933;84;20967;-81
2022/04/01 10:37:28;;;;;;;9.65;8.70;;;;;;;1.65;82.42;94570.95;1703293;84;20994;-81
2022/04/01 10:40:00;;;;;;;9.18;8.35;;;;;;;1.68;82.97;94566.28;1703226;84;20995;-81
2022/04/01 10:42:34;;;;;;;8.68;7.80;;;;;;;1.64;82.27;94566.80;1702979;84;21095;-81
2022/04/01 10:45:08;;;;;;;8.60;7.90;;;;;;;1.58;82.48;94571.30;1701618;84;21075;-81
2022/04/01 10:53:41;;;;;;;10.20;9.28;;;;;;;1.94;83.03;94573.58;1703426;84;21453;-83
2022/04/01 10:56:24;;;;;;;10.80;9.75;;;;;;;2.01;82.58;94573.70;1704680;83;21059;-83
2022/04/01 10:59:16;;;;;;;10.35;9.40;;;;;;;2.05;82.51;94566.77;1708476;84;21064;-83
2022/04/01 11:01:59;;;;;;;11.25;10.15;;;;;;;2.17;82.61;94577.41;1691350;84;21396;-83
2022/04/01 11:04:29;;;;;;;10.82;9.78;;;;;;;2.07;81.62;94583.25;1680085;85;21461;-83
2022/04/01 11:07:02;;;;;;;9.55;8.50;;;;;;;2.21;82.48;94577.36;1680207;85;21406;-83
2022/04/01 11:09:53;;;;;;;9.75;8.85;;;;;;;2.38;82.19;94586.98;1680386;85;20963;-83
2022/04/01 11:12:29;;;;;;;9.75;8.85;;;;;;;2.51;81.86;94587.66;1674521;85;21010;-83
2022/04/01 11:15:07;;;;;;;11.35;9.68;;;;;;;2.69;80.31;94586.34;1680279;85;20982;-83
2022/04/01 11:17:40;;;;;;;11.10;10.10;;;;;;;2.70;80.81;94592.27;1680415;84;21031;-83
2022/04/01 11:20:21;;;;;;;9.40;8.60;;;;;;;2.77;80.19;94588.03;1681065;85;21413;-83
2022/04/01 11:22:56;;;;;;;10.32;9.33;;;;;;;2.88;80.58;94588.84;1680569;85;21018;-82
2022/04/01 11:25:28;;;;;;;8.88;8.18;;;;;;;3.04;80.38;94592.20;1684701;84;20955;-83
2022/04/01 11:28:11;;;;;;;9.33;8.48;;;;;;;3.07;79.23;94589.27;1688089;84;21029;-82
2022/04/01 11:30:47;;;;;;;6.87;6.28;;;;;;;3.25;80.07;94585.83;1681477;82;21006;-82
2022/04/01 11:33:18;;;;;;;8.63;7.72;;;;;;;3.46;79.07;94585.09;1704672;84;21267;-86
2022/04/01 11:35:49;;;;;;;8.95;8.05;;;;;;;3.44;78.95;94588.33;1681166;85;21002;-83
2022/04/01 11:38:18;;;;;;;8.55;7.80;;;;;;;3.43;78.28;94589.31;1690636;84;21050;-83
2022/04/01 11:40:46;;;;;;;9.28;8.48;;;;;;;3.45;78.46;94590.72;1710468;84;21051;-83
2022/04/01 11:43:18;;;;;;;9.35;8.48;;;;;;;3.56;79.10;94589.43;1710767;84;21058;-82
2022/04/01 11:45:47;;;;;;;;;;;;;;;3.60;78.19;94596.61;1687231;84;20984;-82
2022/04/01 11:48:17;;;;;;;8.95;7.97;;;;;;;3.65;77.75;94592.20;1682011;84;20265;-83
2022/04/01 11:50:49;;;;;;;10.45;9.43;;;;;;;3.40;77.35;94594.30;1682853;85;21021;-83
2022/04/01 11:53:26;;;;;;;9.15;8.38;;;;;;;3.23;77.39;94601.91;1682025;85;21348;-83
2022/04/01 11:55:53;;;;;;;10.43;9.43;;;;;;;3.23;78.25;94600.62;1683075;83;21006;-82
2022/04/01 11:58:19;;;;;;;9.90;9.00;;;;;;;3.15;78.26;94596.89;1701672;84;21066;-82
2022/04/01 12:00:46;;;;;;;10.85;9.93;;;;;;;3.21;78.51;94590.53;1704643;84;20999;-82
2022/04/01 12:03:12;;;;;;;10.20;9.30;;;;;;;3.00;77.57;94593.05;1704668;84;21313;-83